createdAt,value
2022-12-15T00:00:47.346Z,-1.18
2022-12-15T00:04:12.565Z,-1.26
2022-12-15T00:07:37.854Z,-1.35
2022-12-15T00:11:03.166Z,-1.43
2022-12-15T00:14:28.457Z,-1.5
2022-12-15T00:17:53.808Z,-1.57
2022-12-15T00:21:19.091Z,-1.64
2022-12-15T00:24:44.376Z,-1.83
2022-12-15T00:28:09.666Z,-2.09
2022-12-15T00:31:34.951Z,-2.26
2022-12-15T00:35:00.178Z,-2.31
2022-12-15T00:38:25.482Z,-2.14
2022-12-15T00:41:50.740Z,-1.88
2022-12-15T00:45:16.022Z,-1.63
2022-12-15T00:48:41.312Z,-1.39
2022-12-15T00:52:06.602Z,-1.17
2022-12-15T00:55:31.883Z,-1.03
2022-12-15T00:58:57.168Z,-0.96
2022-12-15T01:02:22.767Z,-0.94
2022-12-15T01:05:47.823Z,-1.09
2022-12-15T01:09:13.111Z,-1.24
2022-12-15T01:12:38.420Z,-1.32
2022-12-15T01:16:03.701Z,-1.36
2022-12-15T01:19:28.955Z,-1.35
2022-12-15T01:22:54.221Z,-1.37
2022-12-15T01:26:19.498Z,-1.35
2022-12-15T01:29:44.777Z,-1.41
2022-12-15T01:33:10.047Z,-1.49
2022-12-15T01:36:35.505Z,-1.54
2022-12-15T01:40:00.628Z,-1.6
2022-12-15T01:43:25.932Z,-1.61
2022-12-15T01:46:51.353Z,-1.58
2022-12-15T01:50:16.460Z,-1.54
2022-12-15T01:53:41.886Z,-1.56
2022-12-15T01:57:07.127Z,-1.45
2022-12-15T02:00:32.488Z,-1.26
2022-12-15T02:03:57.628Z,-1.16
2022-12-15T02:07:22.923Z,-1.08
2022-12-15T02:10:48.243Z,-1.01
2022-12-15T02:14:13.473Z,-0.82
2022-12-15T02:17:38.735Z,-0.64
2022-12-15T02:21:03.978Z,-0.44
2022-12-15T02:24:29.247Z,-0.29
2022-12-15T02:27:54.529Z,-0.12
2022-12-15T02:31:19.817Z,-0.01
2022-12-15T02:34:45.026Z,0.1
2022-12-15T02:38:10.322Z,0.21
2022-12-15T02:41:35.655Z,0.27
2022-12-15T02:45:00.981Z,0.3
2022-12-15T02:48:26.243Z,0.27
2022-12-15T02:51:51.519Z,0.2
2022-12-15T02:55:16.787Z,0.08
2022-12-15T02:58:42.094Z,-0.05
2022-12-15T03:02:07.669Z,-0.16
2022-12-15T03:05:32.621Z,-0.19
2022-12-15T03:08:57.886Z,-0.21
2022-12-15T03:12:23.206Z,-0.23
2022-12-15T03:15:48.475Z,-0.23
2022-12-15T03:19:13.790Z,-0.23
2022-12-15T03:22:39.138Z,-0.29
2022-12-15T03:26:04.384Z,-0.37
2022-12-15T03:29:29.713Z,-0.51
2022-12-15T03:32:54.992Z,-0.64
2022-12-15T03:36:20.280Z,-0.79
2022-12-15T03:39:45.524Z,-0.92
2022-12-15T03:43:10.850Z,-0.99
2022-12-15T03:46:36.110Z,-1.01
2022-12-15T03:50:01.382Z,-1.07
2022-12-15T03:53:26.760Z,-1.18
2022-12-15T03:56:51.978Z,-1.34
2022-12-15T04:00:17.234Z,-1.58
2022-12-15T04:03:42.622Z,-1.93
2022-12-15T04:07:07.766Z,-2.06
2022-12-15T04:10:34.544Z,-2.25
2022-12-15T04:13:58.332Z,-2.33
2022-12-15T04:17:23.607Z,-2.32
2022-12-15T04:20:50.118Z,-2.31
2022-12-15T04:24:14.163Z,-2.3
2022-12-15T04:27:39.498Z,-2.28
2022-12-15T04:31:04.824Z,-2.25
2022-12-15T04:34:30.071Z,-2.22
2022-12-15T04:37:55.777Z,-2.17
2022-12-15T04:41:23.022Z,-2.15
2022-12-15T04:44:50.026Z,-2.19
2022-12-15T04:48:13.536Z,-2.23
2022-12-15T04:51:38.798Z,-2.31
2022-12-15T04:55:04.576Z,-2.41
2022-12-15T04:58:29.845Z,-2.46
2022-12-15T05:01:55.294Z,-2.46
2022-12-15T05:05:20.393Z,-2.44
2022-12-15T05:08:45.685Z,-2.4
2022-12-15T05:12:10.931Z,-2.42
2022-12-15T05:15:36.232Z,-2.34
2022-12-15T05:19:01.493Z,-2.27
2022-12-15T05:22:26.825Z,-2.23
2022-12-15T05:25:52.159Z,-2.21
2022-12-15T05:29:17.418Z,-2.18
2022-12-15T05:32:42.666Z,-2.15
2022-12-15T05:36:07.967Z,-2.1
2022-12-15T05:39:33.202Z,-2.05
2022-12-15T05:42:58.459Z,-1.96
2022-12-15T05:46:23.864Z,-1.89
2022-12-15T05:49:49.000Z,-1.91
2022-12-15T05:53:14.240Z,-1.97
2022-12-15T05:56:39.438Z,-1.98
2022-12-15T06:00:04.658Z,-1.93
2022-12-15T06:03:30.295Z,-1.87
2022-12-15T06:06:55.194Z,-1.79
2022-12-15T06:10:20.475Z,-1.74
2022-12-15T06:13:45.705Z,-1.7
2022-12-15T06:17:10.938Z,-1.66
2022-12-15T06:20:36.151Z,-1.63
2022-12-15T06:24:01.372Z,-1.61
2022-12-15T06:27:26.647Z,-1.66
2022-12-15T06:30:51.905Z,-1.79
2022-12-15T06:34:17.073Z,-1.89
2022-12-15T06:37:42.305Z,-1.89
2022-12-15T06:41:07.527Z,-1.85
2022-12-15T06:44:32.782Z,-1.85
2022-12-15T06:48:01.418Z,-1.84
2022-12-15T06:51:23.177Z,-1.81
2022-12-15T06:54:48.454Z,-1.83
2022-12-15T06:58:13.697Z,-1.84
2022-12-15T07:01:39.083Z,-1.83
2022-12-15T07:05:04.107Z,-1.8
2022-12-15T07:08:32.269Z,-1.86
2022-12-15T07:11:54.563Z,-1.99
2022-12-15T07:15:19.761Z,-2.1
2022-12-15T07:18:44.991Z,-2.03
2022-12-15T07:22:10.225Z,-1.87
2022-12-15T07:25:35.417Z,-1.71
2022-12-15T07:29:00.619Z,-1.64
2022-12-15T07:32:25.840Z,-1.55
2022-12-15T07:35:51.091Z,-1.41
2022-12-15T07:39:16.316Z,-1.25
2022-12-15T07:42:41.534Z,-1.07
2022-12-15T07:46:06.772Z,-0.87
2022-12-15T07:49:31.961Z,-0.66
2022-12-15T07:52:57.213Z,-0.47
2022-12-15T07:56:22.400Z,-0.31
2022-12-15T07:59:47.666Z,-0.16
2022-12-15T08:03:13.025Z,-0.09
2022-12-15T08:06:38.118Z,-0.01
2022-12-15T08:10:03.385Z,0.09
2022-12-15T08:14:00.528Z,0.16
2022-12-15T08:16:53.767Z,0.24
2022-12-15T08:20:18.960Z,0.39
2022-12-15T08:23:44.176Z,0.48
2022-12-15T08:27:09.432Z,0.44
2022-12-15T08:30:34.612Z,0.32
2022-12-15T08:33:59.861Z,0.2
2022-12-15T08:37:25.157Z,-0.01
2022-12-15T08:40:50.394Z,-0.24
2022-12-15T08:44:15.674Z,-0.36
2022-12-15T08:47:40.899Z,-0.38
2022-12-15T08:51:06.117Z,-0.53
2022-12-15T08:54:31.350Z,-0.68
2022-12-15T08:57:56.577Z,-0.74
2022-12-15T09:01:23.572Z,-0.8
2022-12-15T09:04:47.147Z,-0.95
2022-12-15T09:08:12.303Z,-1.08
2022-12-15T09:11:37.513Z,-1.24
2022-12-15T09:15:02.733Z,-1.19
2022-12-15T09:18:28.015Z,-1.06
2022-12-15T09:21:53.195Z,-0.96
2022-12-15T09:25:18.435Z,-0.81
2022-12-15T09:28:43.645Z,-0.63
2022-12-15T09:32:13.750Z,-0.33
2022-12-15T09:35:34.099Z,-0.08
2022-12-15T09:38:59.320Z,0.05
2022-12-15T09:42:24.542Z,0
2022-12-15T09:45:49.815Z,-0.03
2022-12-15T09:49:14.981Z,-0.04
2022-12-15T09:52:40.247Z,-0.04
2022-12-15T09:56:05.468Z,0.05
2022-12-15T09:59:30.765Z,0.4
2022-12-15T10:02:56.087Z,0.81
2022-12-15T10:06:22.264Z,1.16
2022-12-15T10:09:46.486Z,1.51
2022-12-15T10:13:11.654Z,1.81
2022-12-15T10:16:36.878Z,2.14
2022-12-15T10:20:02.101Z,2.47
2022-12-15T10:23:27.371Z,2.67
2022-12-15T10:26:52.590Z,2.83
2022-12-15T10:30:17.861Z,2.96
2022-12-15T10:33:46.979Z,3.07
2022-12-15T10:37:08.322Z,3.19
2022-12-15T10:40:33.537Z,3.34
2022-12-15T10:43:58.932Z,3.48
2022-12-15T10:47:24.104Z,3.57
2022-12-15T10:50:50.040Z,3.58
2022-12-15T10:54:14.613Z,3.67
2022-12-15T10:57:39.928Z,3.74
2022-12-15T11:01:05.462Z,3.61
2022-12-15T11:04:30.495Z,3.53
2022-12-15T11:07:55.686Z,3.64
2022-12-15T11:11:25.915Z,3.87
2022-12-15T11:14:46.186Z,3.93
2022-12-15T11:18:11.455Z,3.85
2022-12-15T11:21:36.672Z,3.79
2022-12-15T11:25:01.904Z,3.63
2022-12-15T11:28:27.177Z,3.36
2022-12-15T11:31:52.384Z,3.26
2022-12-15T11:35:17.722Z,3.28
2022-12-15T11:38:42.962Z,3.26
2022-12-15T11:42:08.268Z,3.41
2022-12-15T11:45:33.546Z,3.6
2022-12-15T11:48:58.844Z,3.75
2022-12-15T11:52:50.600Z,3.74
2022-12-15T11:56:15.628Z,3.92
2022-12-15T11:59:40.910Z,4.11
2022-12-15T12:03:06.228Z,4.26
2022-12-15T12:06:31.430Z,4.35
2022-12-15T12:09:56.712Z,4.35
2022-12-15T12:13:21.958Z,4.18
2022-12-15T12:16:47.210Z,4.16
2022-12-15T12:20:12.492Z,4.24
2022-12-15T12:23:37.741Z,4.29
2022-12-15T12:27:03.011Z,4.3
2022-12-15T12:30:40.325Z,4.26
2022-12-15T12:34:05.568Z,4.01
2022-12-15T12:37:30.836Z,3.61
2022-12-15T12:40:56.091Z,3.5
2022-12-15T12:44:21.363Z,3.54
2022-12-15T12:47:46.611Z,3.54
2022-12-15T12:51:11.856Z,3.5
2022-12-15T12:54:37.154Z,3.25
2022-12-15T12:58:02.382Z,3.14
2022-12-15T13:01:27.839Z,3.16
2022-12-15T13:04:52.908Z,3.2
2022-12-15T13:08:18.158Z,3.11
2022-12-15T13:11:43.416Z,2.9
2022-12-15T13:15:08.902Z,2.73
2022-12-15T13:18:34.770Z,2.67
2022-12-15T13:21:59.623Z,2.59
2022-12-15T13:25:24.875Z,2.47
2022-12-15T13:28:50.463Z,2.34
2022-12-15T13:32:15.425Z,2.25
2022-12-15T13:35:40.631Z,2.22
2022-12-15T13:39:05.880Z,2.12
2022-12-15T13:42:34.465Z,1.87
2022-12-15T13:45:56.590Z,1.75
2022-12-15T13:49:21.778Z,1.57
2022-12-15T13:56:12.375Z,0.95
2022-12-15T13:59:37.662Z,0.84
2022-12-15T14:03:03.012Z,0.7
2022-12-15T14:06:28.228Z,0.55
2022-12-15T14:09:53.552Z,0.37
2022-12-15T14:13:19.018Z,0.34
2022-12-15T14:16:45.241Z,0.37
2022-12-15T14:20:10.437Z,0.43
2022-12-15T14:23:35.948Z,0.49
2022-12-15T14:27:01.015Z,0.53
2022-12-15T14:30:26.252Z,0.46
2022-12-15T15:04:53.695Z,-3.21
2022-12-15T15:08:18.922Z,-2.27
2022-12-15T15:11:44.279Z,-2.04
2022-12-15T15:15:09.563Z,-1.92
2022-12-15T15:18:35.026Z,-1.99
2022-12-15T15:22:00.168Z,-2.07
2022-12-15T15:25:25.399Z,-2.05
2022-12-15T15:28:51.505Z,-2.05
2022-12-15T15:32:17.372Z,-2.23
2022-12-15T15:35:43.937Z,-2.33
2022-12-15T15:39:09.244Z,-2.43
2022-12-15T15:42:34.503Z,-2.5
2022-12-15T15:45:59.809Z,-2.52
2022-12-15T15:49:25.070Z,-2.49
2022-12-15T15:52:50.333Z,-2.48
2022-12-15T15:56:15.685Z,-2.53
2022-12-15T15:59:41.204Z,-2.55
2022-12-15T16:03:06.682Z,-2.58
2022-12-15T16:06:31.938Z,-2.63
2022-12-15T16:09:57.347Z,-2.57
2022-12-15T16:13:26.126Z,-2.51
2022-12-15T16:16:48.336Z,-2.45
2022-12-15T16:20:13.726Z,-2.39
2022-12-15T16:23:39.064Z,-2.47
2022-12-15T16:27:04.393Z,-2.72
2022-12-15T16:30:29.745Z,-2.78
2022-12-15T16:33:55.085Z,-2.67
2022-12-15T16:37:20.460Z,-2.49
2022-12-15T16:40:45.796Z,-2.37
2022-12-15T16:44:11.064Z,-2.24
2022-12-15T16:47:36.442Z,-2.07
2022-12-15T16:51:01.765Z,-1.91
2022-12-15T16:54:27.173Z,-1.76
2022-12-15T16:57:52.555Z,-1.57
2022-12-15T17:01:17.968Z,-1.42
2022-12-15T17:04:43.291Z,-1.3
2022-12-15T17:08:08.511Z,-1.29
2022-12-15T17:11:33.799Z,-1.43
2022-12-15T17:14:59.122Z,-1.48
2022-12-15T17:18:24.478Z,-1.47
2022-12-15T17:21:49.889Z,-1.42
2022-12-15T17:25:15.160Z,-1.34
2022-12-15T17:28:40.551Z,-1.2
2022-12-15T17:32:05.900Z,-1.05
2022-12-15T17:35:31.377Z,-0.91
2022-12-15T17:38:57.978Z,-0.75
2022-12-15T17:42:23.395Z,-0.61
2022-12-15T17:45:49.015Z,-0.51
2022-12-15T17:49:14.347Z,-0.4
2022-12-15T17:52:42.057Z,-0.32
2022-12-15T17:56:07.545Z,-0.27
2022-12-15T17:59:32.855Z,-0.19
2022-12-15T18:02:58.374Z,-0.09
2022-12-15T18:06:23.535Z,-0.01
2022-12-15T18:09:48.860Z,0.05
2022-12-15T18:13:14.197Z,0.14
2022-12-15T18:16:39.514Z,0.21
2022-12-15T18:20:04.754Z,0.24
2022-12-15T18:23:30.590Z,0.3
2022-12-15T18:26:55.519Z,0.34
2022-12-15T18:30:20.888Z,0.37
2022-12-15T18:33:46.160Z,0.42
2022-12-15T18:37:11.461Z,0.5
2022-12-15T18:40:36.816Z,0.58
2022-12-15T18:44:02.122Z,0.64
2022-12-15T18:47:27.526Z,0.69
2022-12-15T18:50:52.693Z,0.74
2022-12-15T18:54:18.015Z,0.8
2022-12-15T18:57:43.265Z,0.82
2022-12-15T19:01:08.699Z,0.81
2022-12-15T19:04:33.897Z,0.83
2022-12-15T19:07:59.213Z,0.81
2022-12-15T19:11:24.476Z,0.87
2022-12-15T19:14:49.901Z,0.93
2022-12-15T19:18:15.180Z,1.01
2022-12-15T19:21:40.491Z,1.09
2022-12-15T19:25:05.785Z,1.09
2022-12-15T19:28:31.082Z,1.08
2022-12-15T19:31:56.431Z,1.11
2022-12-15T19:35:21.754Z,1.2
2022-12-15T19:38:47.177Z,1.27
2022-12-15T19:42:13.285Z,1.3
2022-12-15T19:45:37.654Z,1.31
2022-12-15T19:49:02.958Z,1.27
2022-12-15T19:52:28.247Z,1.32
2022-12-15T19:55:53.545Z,1.36
2022-12-15T19:59:18.804Z,1.42
2022-12-15T20:02:44.323Z,1.46
2022-12-15T20:06:09.485Z,1.48
2022-12-15T20:09:34.775Z,1.5
2022-12-15T20:13:00.237Z,1.54
2022-12-15T20:16:25.471Z,1.52
2022-12-15T20:19:50.683Z,1.48
2022-12-15T20:23:16.012Z,1.41
2022-12-15T20:26:41.339Z,1.36
2022-12-15T20:30:06.689Z,1.36
2022-12-15T20:33:32.355Z,1.39
2022-12-15T20:36:57.304Z,1.46
2022-12-15T20:40:22.597Z,1.51
2022-12-15T20:43:47.909Z,1.49
2022-12-15T20:47:13.270Z,1.48
2022-12-15T20:50:38.564Z,1.49
2022-12-15T20:54:03.842Z,1.53
2022-12-15T20:57:29.122Z,1.58
2022-12-15T21:01:01.178Z,1.65
2022-12-15T21:04:26.412Z,1.7
2022-12-15T21:07:51.655Z,1.7
2022-12-15T21:11:16.897Z,1.7
2022-12-15T21:14:42.201Z,1.67
2022-12-15T21:18:40.564Z,1.55
2022-12-15T21:21:32.727Z,1.41
2022-12-15T21:24:57.936Z,1.28
2022-12-15T21:28:23.213Z,1.17
2022-12-15T21:31:48.466Z,1.09
2022-12-15T21:35:13.742Z,1.02
2022-12-15T21:38:39.050Z,1.01
2022-12-15T21:42:04.251Z,1
2022-12-15T21:45:29.507Z,1.01
2022-12-15T21:48:54.788Z,1.02
2022-12-15T21:52:20.085Z,1
2022-12-15T21:55:45.377Z,0.93
2022-12-15T21:59:10.633Z,0.87
2022-12-15T22:02:35.985Z,0.83
2022-12-15T22:06:01.180Z,0.81
2022-12-15T22:09:26.435Z,0.82
2022-12-15T22:12:56.005Z,0.83
2022-12-15T22:16:16.970Z,0.83
2022-12-15T22:19:42.234Z,0.86
2022-12-15T22:23:07.490Z,0.9
2022-12-15T22:26:32.783Z,0.91
2022-12-15T22:29:58.060Z,0.91
2022-12-15T22:33:23.287Z,0.92
2022-12-15T22:36:48.581Z,0.97
2022-12-15T22:40:13.851Z,1.03
2022-12-15T22:43:39.128Z,1.08
2022-12-15T22:47:04.402Z,1.14
2022-12-15T22:50:29.643Z,1.19
2022-12-15T22:53:54.901Z,1.23
2022-12-15T22:57:20.166Z,1.27
2022-12-15T23:00:45.470Z,1.33
2022-12-15T23:04:10.760Z,1.34
2022-12-15T23:07:36.011Z,1.21
2022-12-15T23:11:01.323Z,1
2022-12-15T23:14:26.595Z,0.75
2022-12-15T23:17:51.859Z,0.58
2022-12-15T23:21:17.146Z,0.52
2022-12-15T23:24:42.414Z,0.53
2022-12-15T23:28:07.657Z,0.55
2022-12-15T23:31:33.013Z,0.58
2022-12-15T23:34:58.190Z,0.58
2022-12-15T23:38:23.498Z,0.62
2022-12-15T23:41:48.723Z,0.63
2022-12-15T23:45:14.094Z,0.59
2022-12-15T23:48:39.350Z,0.52
2022-12-15T23:52:04.621Z,0.51
2022-12-15T23:55:29.930Z,0.5
2022-12-15T23:58:55.207Z,0.5
